Time;durP1;ratioP1;P1;durP2;ratioP2;P2;SDS_P1;SDS_P2;PMS_P1;PMS_P2;Temp;Humidity;BMP_temperature;BMP_pressure;BME280_temperature;BME280_humidity;BME280_pressure;Samples;Min_cycle;Max_cycle;Signal;HPM_P1;HPM_P2
2022/12/03 00:01:40;;;;;;;12.02;5.60;;;5.00;99.90;;;;;;5070071;28;20503;-59
2022/12/03 00:04:06;;;;;;;9.82;5.38;;;5.00;99.90;;;;;;5070281;28;20036;-59
2022/12/03 00:06:32;;;;;;;13.52;4.97;;;5.00;99.90;;;;;;5066670;28;20033;-59
2022/12/03 00:08:58;;;;;;;13.18;5.47;;;5.00;99.90;;;;;;5070005;28;20056;-59
2022/12/03 00:11:23;;;;;;;9.98;4.43;;;5.00;99.90;;;;;;5071780;28;20082;-59
2022/12/03 00:13:49;;;;;;;9.27;5.30;;;5.10;99.90;;;;;;5066851;28;20499;-59
2022/12/03 00:16:15;;;;;;;11.75;5.55;;;5.10;99.90;;;;;;5071660;28;20488;-59
2022/12/03 00:18:41;;;;;;;11.95;5.05;;;5.10;99.90;;;;;;5071724;28;20491;-59
2022/12/03 00:21:06;;;;;;;11.45;6.10;;;5.20;99.90;;;;;;5069400;28;20145;-60
2022/12/03 00:23:32;;;;;;;11.70;5.53;;;5.20;99.90;;;;;;5063405;28;20583;-59
2022/12/03 00:25:58;;;;;;;9.43;4.70;;;5.10;99.90;;;;;;5066660;28;20118;-61
2022/12/03 00:28:24;;;;;;;11.35;5.38;;;5.10;99.90;;;;;;5071169;28;20025;-59
2022/12/03 00:30:52;;;;;;;9.52;5.05;;;5.10;99.90;;;;;;5069665;28;20051;-59
2022/12/03 00:33:19;;;;;;;9.65;5.00;;;5.10;99.90;;;;;;5069695;28;20031;-59
2022/12/03 00:35:45;;;;;;;9.25;4.90;;;5.20;99.90;;;;;;5069229;28;20175;-60
2022/12/03 00:38:11;;;;;;;10.43;5.85;;;5.20;99.90;;;;;;5069598;28;20073;-60
2022/12/03 00:40:36;;;;;;;9.27;4.97;;;5.20;99.90;;;;;;5070938;28;20029;-60
2022/12/03 00:43:02;;;;;;;10.68;5.80;;;5.30;99.90;;;;;;5069901;28;20040;-60
2022/12/03 00:45:28;;;;;;;11.18;5.22;;;5.30;99.90;;;;;;5071138;28;20024;-60
2022/12/03 00:47:54;;;;;;;12.15;5.40;;;5.30;99.90;;;;;;5069450;28;20055;-60
2022/12/03 00:50:19;;;;;;;14.90;5.13;;;5.30;99.90;;;;;;5071511;28;20024;-60
2022/12/03 00:52:45;;;;;;;10.98;4.60;;;5.30;99.90;;;;;;5069980;28;20130;-60
2022/12/03 00:55:11;;;;;;;10.80;5.75;;;5.40;99.90;;;;;;5065362;28;20452;-60
2022/12/03 00:57:37;;;;;;;9.88;4.93;;;5.30;99.90;;;;;;5070059;28;20074;-60
2022/12/03 01:00:04;;;;;;;9.35;4.80;;;5.40;99.90;;;;;;5069042;28;20039;-61
2022/12/03 01:02:30;;;;;;;9.35;4.43;;;5.30;99.90;;;;;;5071397;28;20028;-60
2022/12/03 01:04:56;;;;;;;14.35;5.90;;;5.30;99.90;;;;;;5065175;28;20082;-60
2022/12/03 01:07:22;;;;;;;13.02;5.55;;;5.30;99.90;;;;;;5070865;28;20036;-61
2022/12/03 01:09:47;;;;;;;10.20;5.25;;;5.30;99.90;;;;;;5068819;28;20024;-60
2022/12/03 01:12:13;;;;;;;10.02;5.15;;;5.30;99.90;;;;;;5070979;28;20032;-59
2022/12/03 01:14:39;;;;;;;10.50;5.68;;;5.30;99.90;;;;;;5070343;28;20027;-60
2022/12/03 01:17:05;;;;;;;13.18;5.75;;;5.30;99.90;;;;;;5058816;28;20040;-60
2022/12/03 01:19:32;;;;;;;12.82;5.35;;;5.40;99.90;;;;;;5069201;28;20047;-60
2022/12/03 01:21:58;;;;;;;11.82;6.10;;;5.40;99.90;;;;;;5068327;28;20187;-59
2022/12/03 01:24:24;;;;;;;10.82;5.28;;;5.40;99.90;;;;;;5070261;28;20488;-60
2022/12/03 01:26:50;;;;;;;14.65;7.05;;;5.40;99.90;;;;;;5068082;28;20036;-61
2022/12/03 01:29:15;;;;;;;13.93;6.20;;;5.40;99.90;;;;;;5070343;28;20467;-59
2022/12/03 01:34:26;;;;;;;17.63;7.68;;;5.40;99.90;;;;;;5068624;28;20391;-59
2022/12/03 01:36:51;;;;;;;14.65;6.97;;;5.50;99.90;;;;;;5068164;28;20028;-60
2022/12/03 01:39:17;;;;;;;13.23;6.50;;;5.50;99.90;;;;;;5068041;28;20032;-59
2022/12/03 01:41:44;;;;;;;13.25;7.07;;;5.50;99.90;;;;;;5061711;28;20053;-59
2022/12/03 01:44:20;;;;;;;15.18;7.55;;;5.50;99.90;;;;;;5068309;28;20391;-60
2022/12/03 01:46:46;;;;;;;12.32;7.32;;;5.60;99.90;;;;;;5070147;28;20028;-60
2022/12/03 01:49:17;;;;;;;15.15;7.03;;;5.50;99.90;;;;;;5068482;28;20056;-59
2022/12/03 01:51:43;;;;;;;15.45;7.35;;;5.50;99.90;;;;;;5069904;28;20032;-59
2022/12/03 01:54:18;;;;;;;14.63;7.35;;;5.50;99.90;;;;;;5065582;28;20139;-59
2022/12/03 01:56:45;;;;;;;14.50;7.13;;;5.40;99.90;;;;;;5063749;28;20082;-59
2022/12/03 01:59:19;;;;;;;15.25;7.60;;;5.40;99.90;;;;;;5068107;28;20044;-59
2022/12/03 02:01:45;;;;;;;15.23;8.05;;;5.40;99.90;;;;;;5065327;28;20579;-59
2022/12/03 02:04:13;;;;;;;14.25;7.50;;;5.40;99.90;;;;;;5068180;28;20119;-59
2022/12/03 02:06:40;;;;;;;15.27;7.68;;;5.40;99.90;;;;;;5069730;28;20082;-59
2022/12/03 02:09:07;;;;;;;19.73;9.18;;;5.50;99.90;;;;;;5067685;28;20032;-58
2022/12/03 02:11:38;;;;;;;20.88;9.05;;;5.50;99.90;;;;;;5062338;28;20024;-59
2022/12/03 02:14:11;;;;;;;15.27;8.05;;;5.50;99.90;;;;;;5069775;28;20038;-60
2022/12/03 02:16:39;;;;;;;18.85;8.23;;;5.50;99.90;;;;;;5068662;28;20028;-59
2022/12/03 02:19:31;;;;;;;20.15;8.13;;;5.50;99.90;;;;;;5068234;28;20063;-58
2022/12/03 02:22:20;;;;;;;20.48;7.40;;;5.50;99.90;;;;;;5058800;28;20095;-59
2022/12/03 02:24:57;;;;;;;18.58;7.72;;;5.50;99.90;;;;;;5069580;28;20024;-59
2022/12/03 02:27:23;;;;;;;17.83;7.82;;;5.50;99.90;;;;;;5061807;28;20067;-61
2022/12/03 02:29:50;;;;;;;18.75;8.75;;;5.50;99.90;;;;;;5066130;28;20032;-61
2022/12/03 02:32:16;;;;;;;17.73;8.30;;;5.50;99.90;;;;;;5078359;28;20055;-61
2022/12/03 02:34:44;;;;;;;17.13;8.30;;;5.60;99.90;;;;;;5074061;28;20466;-60
2022/12/03 02:37:21;;;;;;;21.13;8.98;;;5.50;99.90;;;;;;5067876;28;20067;-60
2022/12/03 02:39:51;;;;;;;19.23;9.00;;;5.60;99.90;;;;;;5066439;28;20040;-60
2022/12/03 02:42:36;;;;;;;18.35;9.70;;;5.70;99.90;;;;;;5068433;28;20067;-61
2022/12/03 02:45:14;;;;;;;14.48;8.23;;;5.70;99.90;;;;;;5067764;28;20032;-59
2022/12/03 02:47:56;;;;;;;18.27;8.57;;;5.80;99.90;;;;;;5069592;28;20060;-59
2022/12/03 02:50:27;;;;;;;13.57;7.75;;;5.80;99.90;;;;;;5051064;28;20476;-60
2022/12/03 02:52:56;;;;;;;20.27;8.55;;;5.80;99.90;;;;;;5062319;28;20021;-61
2022/12/03 02:55:23;;;;;;;15.23;7.65;;;5.80;99.90;;;;;;5064820;28;20081;-59
2022/12/03 02:57:50;;;;;;;16.70;8.52;;;5.80;99.90;;;;;;5075452;28;20031;-60
2022/12/03 03:00:16;;;;;;;19.92;9.05;;;5.90;99.90;;;;;;5059797;28;20052;-60
2022/12/03 03:02:44;;;;;;;17.05;7.95;;;5.80;99.90;;;;;;5079193;28;20178;-59
2022/12/03 03:05:12;;;;;;;15.70;8.73;;;5.80;99.90;;;;;;5067481;28;20089;-65
2022/12/03 03:07:38;;;;;;;17.05;8.57;;;5.80;99.90;;;;;;5078317;28;20024;-61
2022/12/03 03:10:07;;;;;;;19.10;8.52;;;5.80;99.90;;;;;;5071421;28;20145;-61
2022/12/03 03:12:33;;;;;;;16.00;7.70;;;5.80;99.90;;;;;;5066684;28;20037;-60
2022/12/03 03:14:59;;;;;;;15.63;7.47;;;5.70;99.90;;;;;;5067365;28;20045;-60
2022/12/03 03:17:25;;;;;;;14.73;7.57;;;5.80;99.90;;;;;;5068309;28;20471;-60
2022/12/03 03:19:51;;;;;;;17.25;7.72;;;5.80;99.90;;;;;;5069965;28;20039;-60
2022/12/03 03:22:18;;;;;;;16.85;8.68;;;5.80;99.90;;;;;;5071800;28;20055;-64
2022/12/03 03:24:43;;;;;;;15.38;7.60;;;5.70;99.90;;;;;;5071551;28;20027;-60
2022/12/03 03:27:10;;;;;;;13.18;8.00;;;5.80;99.90;;;;;;5069780;28;20032;-60
2022/12/03 03:29:35;;;;;;;15.07;8.15;;;5.70;99.90;;;;;;5070779;28;20070;-60
2022/12/03 03:32:03;;;;;;;15.98;7.63;;;5.80;99.90;;;;;;5079214;28;20036;-60
2022/12/03 03:34:31;;;;;;;16.23;7.95;;;5.70;99.90;;;;;;5073164;28;20025;-60
2022/12/03 03:36:57;;;;;;;16.08;8.80;;;5.70;99.90;;;;;;5069521;28;20029;-60
2022/12/03 03:39:23;;;;;;;18.25;8.35;;;5.60;99.90;;;;;;5073373;28;20123;-62
2022/12/03 03:41:49;;;;;;;16.33;8.10;;;5.60;99.90;;;;;;5071672;28;20066;-60
2022/12/03 03:44:15;;;;;;;17.45;7.53;;;5.70;99.90;;;;;;5064989;28;20020;-60
2022/12/03 03:46:41;;;;;;;18.95;8.82;;;5.70;99.90;;;;;;5075065;28;20471;-60
2022/12/03 03:49:09;;;;;;;15.63;7.35;;;5.60;99.90;;;;;;5069538;28;20479;-59
2022/12/03 03:51:36;;;;;;;17.05;8.20;;;5.70;99.90;;;;;;5070990;28;20075;-60
2022/12/03 03:54:04;;;;;;;22.70;8.93;;;5.70;99.90;;;;;;5072679;28;20028;-60
2022/12/03 03:56:31;;;;;;;17.05;7.75;;;5.70;99.90;;;;;;5070997;28;20115;-59
2022/12/03 03:58:57;;;;;;;16.00;7.63;;;5.70;99.90;;;;;;5056250;28;20028;-59
2022/12/03 04:01:23;;;;;;;16.58;7.93;;;5.70;99.90;;;;;;5065564;28;20041;-59
2022/12/03 04:03:49;;;;;;;20.00;8.95;;;5.70;99.90;;;;;;5072086;28;20056;-60
2022/12/03 04:06:15;;;;;;;22.38;7.95;;;5.70;99.90;;;;;;5073880;28;20121;-60
2022/12/03 04:08:41;;;;;;;17.27;8.50;;;5.70;99.90;;;;;;5076169;28;20052;-59
2022/12/03 04:13:51;;;;;;;15.57;8.15;;;5.70;99.90;;;;;;5071566;28;20035;-60
2022/12/03 04:16:16;;;;;;;18.20;8.68;;;5.70;99.90;;;;;;5078921;28;20102;-59
2022/12/03 04:18:42;;;;;;;19.75;8.63;;;5.60;99.90;;;;;;5068362;28;20484;-60
2022/12/03 04:24:01;;;;;;;18.33;8.68;;;5.60;99.90;;;;;;5070327;28;20097;-59
2022/12/03 04:29:12;;;;;;;17.45;8.63;;;5.60;99.90;;;;;;5067953;28;20058;-60
2022/12/03 04:37:14;;;;;;;16.15;8.13;;;5.60;99.90;;;;;;5067452;28;19915;-60
2022/12/03 04:39:40;;;;;;;13.70;8.07;;;5.60;99.90;;;;;;5070836;28;20468;-59
2022/12/03 04:42:06;;;;;;;16.63;8.20;;;5.60;99.90;;;;;;5066334;28;20040;-60
2022/12/03 04:44:34;;;;;;;18.13;8.68;;;5.60;99.90;;;;;;5071302;28;20021;-60
2022/12/03 04:47:06;;;;;;;18.15;8.55;;;5.50;99.90;;;;;;5071930;28;20109;-60
2022/12/03 04:49:33;;;;;;;18.70;8.68;;;5.50;99.90;;;;;;5069658;28;20033;-60
2022/12/03 04:51:59;;;;;;;19.45;9.93;;;5.50;99.90;;;;;;5066681;28;20131;-60
2022/12/03 04:54:26;;;;;;;17.80;8.52;;;5.50;99.90;;;;;;5074388;28;20094;-60
2022/12/03 04:56:52;;;;;;;17.60;9.38;;;5.40;99.90;;;;;;5070137;28;20380;-60
2022/12/03 04:59:18;;;;;;;21.88;10.10;;;5.40;99.90;;;;;;5065045;28;20468;-60
2022/12/03 05:01:44;;;;;;;18.95;9.00;;;5.40;99.90;;;;;;5071329;28;20044;-60
2022/12/03 05:04:11;;;;;;;19.52;9.50;;;5.40;99.90;;;;;;5062426;28;20033;-60
2022/12/03 05:06:37;;;;;;;19.20;9.15;;;5.40;99.90;;;;;;5069580;28;20406;-60
2022/12/03 05:09:03;;;;;;;20.38;9.48;;;5.40;99.90;;;;;;5069339;28;20028;-60
2022/12/03 05:11:29;;;;;;;20.90;9.95;;;5.40;99.90;;;;;;5062260;28;20033;-60
2022/12/03 05:13:55;;;;;;;21.90;9.07;;;5.40;99.90;;;;;;5069142;28;20047;-60
2022/12/03 05:16:21;;;;;;;16.65;8.40;;;5.50;99.90;;;;;;5071317;28;20048;-60
2022/12/03 05:18:47;;;;;;;17.45;8.50;;;5.50;99.90;;;;;;5070723;28;20021;-59
2022/12/03 05:21:12;;;;;;;18.77;8.05;;;5.50;99.90;;;;;;5065391;28;20518;-60
2022/12/03 05:23:38;;;;;;;19.20;10.10;;;5.50;99.90;;;;;;5069558;28;20447;-60
2022/12/03 05:26:04;;;;;;;21.73;9.13;;;5.40;99.90;;;;;;5070916;28;20094;-60
2022/12/03 05:28:30;;;;;;;17.80;9.30;;;5.40;99.90;;;;;;5065345;28;20025;-59
2022/12/03 05:30:55;;;;;;;18.73;9.43;;;5.40;99.90;;;;;;5065258;28;20045;-59
2022/12/03 05:33:21;;;;;;;20.10;9.93;;;5.40;99.90;;;;;;5066151;28;20032;-60
2022/12/03 05:35:47;;;;;;;19.73;9.38;;;5.40;99.90;;;;;;5070341;28;20032;-59
2022/12/03 05:38:13;;;;;;;18.40;8.73;;;5.40;99.90;;;;;;5067242;28;20032;-60
2022/12/03 05:40:39;;;;;;;18.85;9.00;;;5.40;99.90;;;;;;5069242;28;20384;-59
2022/12/03 05:43:04;;;;;;;22.08;11.05;;;5.30;99.90;;;;;;5069342;28;20119;-61
2022/12/03 05:45:36;;;;;;;23.40;9.93;;;5.30;99.90;;;;;;5069944;28;20028;-59
2022/12/03 05:48:04;;;;;;;24.42;10.43;;;5.30;99.90;;;;;;5063671;28;20500;-60
2022/12/03 05:50:32;;;;;;;21.45;9.90;;;5.30;99.90;;;;;;5069975;28;20103;-60
2022/12/03 05:52:59;;;;;;;25.27;9.55;;;5.30;99.90;;;;;;5068633;28;20032;-60
2022/12/03 05:55:25;;;;;;;27.20;10.95;;;5.30;99.90;;;;;;5069959;28;20105;-59
2022/12/03 05:57:51;;;;;;;23.65;9.68;;;5.30;99.90;;;;;;5065555;28;20479;-59
2022/12/03 06:00:28;;;;;;;20.52;9.50;;;5.30;99.90;;;;;;5068483;28;20082;-60
2022/12/03 06:02:55;;;;;;;19.02;9.35;;;5.30;99.90;;;;;;5067105;28;20028;-59
2022/12/03 06:05:22;;;;;;;18.60;9.27;;;5.30;99.90;;;;;;5069332;28;20020;-60
2022/12/03 06:07:49;;;;;;;18.23;9.40;;;5.40;99.90;;;;;;5069606;28;20039;-59
2022/12/03 06:10:20;;;;;;;17.83;8.85;;;5.30;99.90;;;;;;5066799;28;20040;-60
2022/12/03 06:12:45;;;;;;;18.75;8.77;;;5.40;99.90;;;;;;5068049;28;20119;-59
2022/12/03 06:15:13;;;;;;;21.80;9.95;;;5.30;99.90;;;;;;5068228;28;20115;-61
2022/12/03 06:17:40;;;;;;;25.23;10.00;;;5.30;99.90;;;;;;5068519;28;20593;-60
2022/12/03 06:20:07;;;;;;;24.75;9.50;;;5.30;99.90;;;;;;5066475;28;20492;-60
2022/12/03 06:22:33;;;;;;;20.25;10.60;;;5.30;99.90;;;;;;5067532;28;20111;-60
2022/12/03 06:24:59;;;;;;;21.65;9.75;;;5.40;99.90;;;;;;5064094;28;20104;-60
2022/12/03 06:27:25;;;;;;;19.27;9.15;;;5.40;99.90;;;;;;5069025;28;20047;-60
2022/12/03 06:29:50;;;;;;;23.20;10.48;;;5.40;99.90;;;;;;5068518;28;20025;-61
2022/12/03 06:32:16;;;;;;;20.38;8.75;;;5.40;99.90;;;;;;5065455;28;20040;-59
2022/12/03 06:34:42;;;;;;;21.70;9.35;;;5.40;99.90;;;;;;5064325;28;20025;-60
2022/12/03 06:37:07;;;;;;;20.30;9.63;;;5.40;99.90;;;;;;5067810;28;20120;-60
2022/12/03 06:39:33;;;;;;;21.48;9.15;;;5.30;99.90;;;;;;5069019;28;20067;-60
2022/12/03 06:41:59;;;;;;;21.95;9.27;;;5.30;99.90;;;;;;5064674;28;20131;-60
2022/12/03 06:44:25;;;;;;;20.10;10.25;;;5.30;99.90;;;;;;5066755;28;20043;-60
2022/12/03 06:46:51;;;;;;;20.38;9.40;;;5.30;99.90;;;;;;5064948;28;20026;-60
2022/12/03 06:49:16;;;;;;;20.50;9.60;;;5.30;99.90;;;;;;5069495;28;20033;-61
2022/12/03 06:51:42;;;;;;;24.17;10.15;;;5.30;99.90;;;;;;5067138;28;20396;-60
2022/12/03 06:54:08;;;;;;;18.70;8.98;;;5.30;99.90;;;;;;5069803;28;20044;-60
2022/12/03 06:56:34;;;;;;;24.08;10.27;;;5.30;99.90;;;;;;5070075;28;20029;-60
2022/12/03 06:59:00;;;;;;;23.92;10.10;;;5.40;99.90;;;;;;5066861;28;20032;-60
2022/12/03 07:01:25;;;;;;;24.52;9.65;;;5.30;99.90;;;;;;5069516;28;20045;-61
2022/12/03 07:03:51;;;;;;;23.67;10.88;;;5.30;99.90;;;;;;5067670;28;20416;-60
2022/12/03 07:06:17;;;;;;;26.67;9.95;;;5.30;99.90;;;;;;5072947;28;20115;-60
2022/12/03 07:08:43;;;;;;;21.83;10.27;;;5.30;99.90;;;;;;5073124;28;20032;-60
2022/12/03 07:11:29;;;;;;;25.33;10.65;;;5.30;99.90;;;;;;5068951;28;20167;-60
2022/12/03 07:13:55;;;;;;;22.00;9.45;;;5.40;99.90;;;;;;5063259;28;20464;-60
2022/12/03 07:16:20;;;;;;;24.20;9.85;;;5.30;99.90;;;;;;5069593;28;20395;-60
2022/12/03 07:18:46;;;;;;;22.63;10.02;;;5.30;99.90;;;;;;5072966;28;20021;-60
2022/12/03 07:21:12;;;;;;;20.15;8.98;;;5.40;99.90;;;;;;5069345;28;20052;-61
2022/12/03 07:23:37;;;;;;;17.00;8.85;;;5.40;99.90;;;;;;5073690;28;20122;-60
2022/12/03 07:26:03;;;;;;;20.15;9.50;;;5.50;99.90;;;;;;5070659;28;20031;-60
2022/12/03 07:28:29;;;;;;;18.02;9.43;;;5.40;99.90;;;;;;5073029;28;20048;-60
2022/12/03 07:30:55;;;;;;;20.23;8.75;;;5.40;99.90;;;;;;5069832;28;20056;-60
2022/12/03 07:33:20;;;;;;;20.27;9.13;;;5.40;99.90;;;;;;5071863;28;20109;-60
2022/12/03 07:35:46;;;;;;;22.80;9.07;;;5.40;99.90;;;;;;5072463;28;20017;-60
2022/12/03 07:38:12;;;;;;;22.58;9.23;;;5.50;99.90;;;;;;5065261;28;20039;-60
2022/12/03 07:40:38;;;;;;;18.48;9.05;;;5.50;99.90;;;;;;5071600;28;20110;-60
2022/12/03 07:43:03;;;;;;;21.25;9.05;;;5.50;99.90;;;;;;5075013;28;20036;-59
2022/12/03 07:45:29;;;;;;;21.45;8.90;;;5.50;99.90;;;;;;5071500;28;20024;-60
2022/12/03 07:47:55;;;;;;;17.80;8.93;;;5.50;99.90;;;;;;5070218;28;20052;-59
2022/12/03 07:50:21;;;;;;;20.95;8.40;;;5.50;99.90;;;;;;5071931;28;20025;-59
2022/12/03 07:52:47;;;;;;;22.75;9.50;;;5.50;99.90;;;;;;5072915;28;20021;-59
2022/12/03 07:55:12;;;;;;;20.25;9.32;;;5.60;99.90;;;;;;5068972;28;20480;-59
2022/12/03 07:57:38;;;;;;;19.40;8.82;;;5.60;99.90;;;;;;5065677;28;20040;-59
2022/12/03 08:00:06;;;;;;;19.08;8.43;;;5.60;99.90;;;;;;5060497;28;20036;-61
2022/12/03 08:02:32;;;;;;;21.27;9.93;;;5.60;99.90;;;;;;5071644;28;20048;-60
2022/12/03 08:04:57;;;;;;;20.35;8.95;;;5.60;99.90;;;;;;5070036;28;20025;-59
2022/12/03 08:07:23;;;;;;;19.77;8.25;;;5.60;99.90;;;;;;5077769;28;20086;-60
2022/12/03 08:09:49;;;;;;;20.35;8.70;;;5.60;99.90;;;;;;5070589;28;20032;-59
2022/12/03 08:12:38;;;;;;;16.42;7.47;;;5.70;99.90;;;;;;5071537;28;20028;-60
2022/12/03 08:15:09;;;;;;;18.85;9.18;;;5.60;99.90;;;;;;5060254;28;20392;-60
2022/12/03 08:17:35;;;;;;;20.05;8.40;;;5.70;99.90;;;;;;5076211;28;20444;-60
2022/12/03 08:20:04;;;;;;;25.10;9.25;;;5.70;99.90;;;;;;5069301;28;20529;-59
2022/12/03 08:22:30;;;;;;;24.30;9.75;;;5.70;99.90;;;;;;5071511;28;20051;-59
2022/12/03 08:24:57;;;;;;;27.45;9.05;;;5.70;99.90;;;;;;5069372;28;20123;-59
2022/12/03 08:27:23;;;;;;;20.65;9.00;;;5.80;99.90;;;;;;5072518;28;20035;-60
2022/12/03 08:29:49;;;;;;;24.27;9.63;;;5.80;99.90;;;;;;5070524;28;20028;-59
2022/12/03 08:32:14;;;;;;;22.10;9.68;;;5.80;99.90;;;;;;5073773;28;20048;-60
2022/12/03 08:34:42;;;;;;;24.13;10.27;;;5.80;99.90;;;;;;5070740;28;20031;-61
2022/12/03 08:37:17;;;;;;;23.42;11.70;;;5.80;99.90;;;;;;5065466;28;20040;-60
2022/12/03 08:39:47;;;;;;;28.23;12.63;;;5.80;99.90;;;;;;5064662;28;20412;-60
2022/12/03 08:42:42;;;;;;;28.20;12.23;;;5.80;99.90;;;;;;5066230;28;20102;-61
2022/12/03 08:45:26;;;;;;;24.00;10.75;;;5.90;99.90;;;;;;5065699;28;20032;-60
2022/12/03 08:47:59;;;;;;;22.23;11.55;;;5.90;99.90;;;;;;5066465;28;20078;-60
2022/12/03 08:50:32;;;;;;;;;;;5.90;99.90;;;;;;5070116;28;20468;-60
2022/12/03 08:53:28;;;;;;;21.50;10.43;;;5.90;99.90;;;;;;5068784;28;19969;-59
2022/12/03 08:55:58;;;;;;;22.60;11.38;;;5.90;99.90;;;;;;5068434;28;20059;-59
2022/12/03 08:58:37;;;;;;;26.55;11.05;;;5.90;99.90;;;;;;5064704;28;20052;-60
2022/12/03 09:01:11;;;;;;;26.63;11.80;;;5.90;99.90;;;;;;5066147;28;20028;-59
2022/12/03 09:03:53;;;;;;;25.98;11.70;;;6.00;99.90;;;;;;5070398;28;20203;-60
2022/12/03 09:06:19;;;;;;;23.70;10.80;;;6.00;99.90;;;;;;5074165;28;20017;-59
2022/12/03 09:08:45;;;;;;;21.73;11.30;;;6.00;99.90;;;;;;5072894;28;20039;-60
2022/12/03 09:11:10;;;;;;;20.60;10.35;;;6.10;99.90;;;;;;5067594;28;20151;-60
2022/12/03 09:13:36;;;;;;;26.30;11.30;;;6.10;99.90;;;;;;5071860;28;20033;-59
2022/12/03 09:16:02;;;;;;;26.13;10.95;;;6.10;99.90;;;;;;5072667;28;20434;-59
2022/12/03 09:18:27;;;;;;;24.27;9.85;;;6.10;99.90;;;;;;5075135;28;20024;-58
2022/12/03 09:20:54;;;;;;;20.25;9.48;;;6.10;99.90;;;;;;5065855;28;20610;-60
2022/12/03 09:23:20;;;;;;;23.92;9.98;;;6.10;99.90;;;;;;5074824;28;20028;-59
2022/12/03 09:25:45;;;;;;;23.10;9.50;;;6.10;99.90;;;;;;5069869;28;20028;-59
2022/12/03 09:28:11;;;;;;;18.88;9.40;;;6.10;99.90;;;;;;5061481;28;20399;-59
2022/12/03 09:30:37;;;;;;;21.58;8.80;;;6.10;99.90;;;;;;5070083;28;20387;-59
2022/12/03 09:33:03;;;;;;;20.00;9.13;;;6.10;99.90;;;;;;5071807;28;20036;-60
2022/12/03 09:35:29;;;;;;;17.13;9.05;;;6.20;99.90;;;;;;5068610;28;20032;-58
2022/12/03 09:37:55;;;;;;;23.17;9.10;;;6.20;99.90;;;;;;5068043;28;20103;-59
2022/12/03 09:40:21;;;;;;;19.10;8.82;;;6.20;99.90;;;;;;5065975;28;20226;-60
2022/12/03 09:42:47;;;;;;;19.42;8.70;;;6.20;99.90;;;;;;5071765;28;20063;-59
2022/12/03 09:45:14;;;;;;;18.75;8.10;;;6.20;99.90;;;;;;5064525;28;20037;-62
2022/12/03 09:47:43;;;;;;;17.45;8.57;;;6.10;99.90;;;;;;5062552;28;20029;-61
2022/12/03 09:50:20;;;;;;;14.90;8.20;;;6.20;99.90;;;;;;5063839;28;20123;-63
2022/12/03 09:52:48;;;;;;;17.52;7.80;;;6.20;99.90;;;;;;5069342;28;20185;-58
2022/12/03 09:55:26;;;;;;;20.67;8.75;;;6.30;99.90;;;;;;5066354;28;20065;-60
2022/12/03 09:57:57;;;;;;;18.27;8.55;;;6.30;99.90;;;;;;5060993;28;20027;-61
2022/12/03 10:00:29;;;;;;;18.27;8.75;;;6.30;99.90;;;;;;5067598;28;20029;-60
2022/12/03 10:03:02;;;;;;;15.60;7.95;;;6.40;99.90;;;;;;5055707;28;20061;-61
2022/12/03 10:05:28;;;;;;;14.25;7.50;;;6.40;99.90;;;;;;5062945;28;20029;-60
2022/12/03 10:08:00;;;;;;;15.57;8.30;;;6.40;99.90;;;;;;5061855;28;20033;-60
2022/12/03 10:10:26;;;;;;;17.80;7.47;;;6.40;99.90;;;;;;5063346;28;20024;-60
2022/12/03 10:12:52;;;;;;;15.05;7.78;;;6.40;99.90;;;;;;5062114;28;20036;-61
2022/12/03 10:15:21;;;;;;;17.35;7.65;;;6.50;99.90;;;;;;5062326;28;20063;-61
2022/12/03 10:17:50;;;;;;;16.88;7.68;;;6.50;99.90;;;;;;5059357;28;20025;-60
2022/12/03 10:20:21;;;;;;;36.10;18.63;;;6.50;99.90;;;;;;5061349;28;20461;-61
2022/12/03 10:22:48;;;;;;;20.55;9.20;;;6.50;99.90;;;;;;5054290;28;20099;-61
2022/12/03 10:25:16;;;;;;;18.65;8.15;;;6.60;99.90;;;;;;5055112;28;20082;-60
2022/12/03 10:27:56;;;;;;;14.90;7.07;;;6.50;99.90;;;;;;5062448;28;20053;-61
2022/12/03 10:30:25;;;;;;;15.98;8.10;;;6.50;99.90;;;;;;5063810;28;20025;-61
2022/12/03 10:32:51;;;;;;;19.70;8.93;;;6.60;99.90;;;;;;5062022;28;20036;-61
2022/12/03 10:35:22;;;;;;;12.63;7.80;;;6.70;99.90;;;;;;5061222;28;20039;-65
2022/12/03 10:38:00;;;;;;;28.70;11.18;;;6.60;99.90;;;;;;5062916;28;20146;-61
2022/12/03 10:40:34;;;;;;;19.65;10.57;;;6.70;99.90;;;;;;5064015;28;20032;-60
2022/12/03 10:43:19;;;;;;;19.98;7.72;;;6.70;99.90;;;;;;5059066;28;20547;-61
2022/12/03 10:45:46;;;;;;;17.27;7.85;;;6.70;99.90;;;;;;5063486;28;20024;-59
2022/12/03 10:48:24;;;;;;;15.82;7.53;;;6.70;99.90;;;;;;5063241;28;20108;-60
2022/12/03 10:50:57;;;;;;;14.52;6.90;;;6.60;99.90;;;;;;5062357;28;20025;-60
2022/12/03 10:53:32;;;;;;;18.25;7.22;;;6.70;99.90;;;;;;5063324;28;20060;-63
2022/12/03 10:56:00;;;;;;;32.58;18.75;;;6.70;99.90;;;;;;5061728;28;20543;-61
2022/12/03 10:58:34;;;;;;;15.88;7.88;;;6.70;99.90;;;;;;5063607;28;20033;-58
2022/12/03 11:01:04;;;;;;;31.98;12.60;;;6.70;99.90;;;;;;5068700;28;20043;-60
2022/12/03 11:03:34;;;;;;;21.02;7.93;;;6.70;99.90;;;;;;5072698;28;20033;-63
2022/12/03 11:06:01;;;;;;;28.92;12.75;;;6.70;99.90;;;;;;5070648;28;20031;-60
2022/12/03 11:08:33;;;;;;;19.25;8.70;;;6.70;99.90;;;;;;5072686;28;20040;-59
2022/12/03 11:11:07;;;;;;;15.98;8.75;;;6.70;99.90;;;;;;5067034;28;20131;-60
2022/12/03 11:13:33;;;;;;;15.98;7.85;;;6.70;99.90;;;;;;5065856;28;20028;-60
2022/12/03 11:16:04;;;;;;;16.58;7.07;;;6.60;99.90;;;;;;5070831;28;20491;-61
2022/12/03 11:18:35;;;;;;;13.45;7.68;;;6.60;99.90;;;;;;5072563;28;20035;-58
2022/12/03 11:21:11;;;;;;;15.27;8.35;;;6.60;99.90;;;;;;5070398;28;20127;-59
2022/12/03 11:23:46;;;;;;;15.77;8.02;;;6.60;99.90;;;;;;5070734;28;20040;-59
2022/12/03 11:26:14;;;;;;;17.70;8.77;;;6.60;99.90;;;;;;5069745;28;20048;-60
2022/12/03 11:28:46;;;;;;;15.50;7.53;;;6.70;99.90;;;;;;5071725;28;20021;-59
2022/12/03 11:31:38;;;;;;;15.73;8.98;;;6.60;99.90;;;;;;5069053;28;20033;-59
2022/12/03 11:34:19;;;;;;;15.02;7.95;;;6.60;99.90;;;;;;5070673;28;20028;-58
2022/12/03 11:37:09;;;;;;;17.00;8.95;;;6.60;99.90;;;;;;5071909;28;20120;-58
2022/12/03 11:39:51;;;;;;;15.15;8.48;;;6.70;99.90;;;;;;5065769;28;20456;-60
2022/12/03 11:42:25;;;;;;;23.58;9.95;;;6.70;99.90;;;;;;5066859;28;20029;-64
2022/12/03 11:45:07;;;;;;;15.93;9.88;;;6.70;99.90;;;;;;5072206;28;20475;-60
2022/12/03 11:48:00;;;;;;;20.10;8.60;;;6.70;99.90;;;;;;5065345;28;20024;-58
2022/12/03 11:50:31;;;;;;;22.48;9.38;;;6.70;99.90;;;;;;5066968;28;20060;-59
2022/12/03 11:53:15;;;;;;;18.52;9.43;;;6.70;99.90;;;;;;5070574;28;20036;-68
2022/12/03 11:55:47;;;;;;;20.02;10.30;;;6.70;99.90;;;;;;5071508;28;20029;-59
2022/12/03 11:58:23;;;;;;;20.17;10.25;;;6.70;99.90;;;;;;5054103;28;20067;-59
2022/12/03 12:00:57;;;;;;;18.83;9.80;;;6.60;99.90;;;;;;5075587;28;20484;-61
2022/12/03 12:03:28;;;;;;;17.48;9.50;;;6.60;99.90;;;;;;5068994;28;20085;-59
2022/12/03 12:06:04;;;;;;;20.77;10.57;;;6.60;99.90;;;;;;5066084;28;20032;-60
2022/12/03 12:08:31;;;;;;;18.50;10.57;;;6.60;99.90;;;;;;5071876;28;20038;-59
2022/12/03 12:10:57;;;;;;;21.67;11.35;;;6.60;99.90;;;;;;5069854;28;20067;-60
2022/12/03 12:13:27;;;;;;;23.25;11.45;;;6.60;99.90;;;;;;5069677;28;20017;-60
2022/12/03 12:15:53;;;;;;;23.80;10.88;;;6.60;99.90;;;;;;5069315;28;20128;-58
2022/12/03 12:18:50;;;;;;;24.95;11.65;;;6.70;99.90;;;;;;5071553;28;20028;-59
2022/12/03 12:21:42;;;;;;;24.63;10.15;;;6.80;99.90;;;;;;5075182;28;20040;-59
2022/12/03 12:24:30;;;;;;;19.30;11.20;;;6.70;99.90;;;;;;5070117;28;20029;-60
2022/12/03 12:27:20;;;;;;;24.73;12.63;;;6.60;99.90;;;;;;5067111;28;20056;-60
2022/12/03 12:29:52;;;;;;;24.42;11.15;;;6.70;99.90;;;;;;5068371;28;20025;-60
2022/12/03 12:32:23;;;;;;;25.67;11.35;;;6.70;99.90;;;;;;5069908;28;20032;-59
2022/12/03 12:34:52;;;;;;;24.75;11.27;;;6.60;99.90;;;;;;5071386;28;20032;-59
2022/12/03 12:37:34;;;;;;;22.13;12.38;;;6.70;99.90;;;;;;5073087;28;20063;-59
2022/12/03 12:40:09;;;;;;;27.42;11.85;;;6.70;99.90;;;;;;5063825;28;20400;-60
2022/12/03 12:42:37;;;;;;;27.40;12.70;;;6.60;99.90;;;;;;5072553;28;20487;-59
2022/12/03 12:45:14;;;;;;;24.23;12.85;;;6.60;99.90;;;;;;5069576;28;20435;-60
2022/12/03 12:48:15;;;;;;;31.35;14.45;;;6.60;99.90;;;;;;5072163;28;20181;-60
2022/12/03 12:50:43;;;;;;;22.85;12.52;;;6.60;99.90;;;;;;5072773;28;20031;-60
2022/12/03 12:53:18;;;;;;;24.70;12.98;;;6.60;99.90;;;;;;5071547;28;20391;-60
2022/12/03 12:55:44;;;;;;;26.10;13.70;;;6.50;99.90;;;;;;5068787;28;20035;-60
2022/12/03 12:58:18;;;;;;;27.90;13.85;;;6.40;99.90;;;;;;5067681;28;20033;-60
2022/12/03 13:00:51;;;;;;;27.95;12.63;;;6.50;99.90;;;;;;5073057;28;20114;-60
2022/12/03 13:03:20;;;;;;;30.33;13.38;;;6.40;99.90;;;;;;5062503;28;20115;-59
2022/12/03 13:05:48;;;;;;;30.75;15.02;;;6.40;99.90;;;;;;5068421;28;20112;-60
2022/12/03 13:08:36;;;;;;;27.85;13.55;;;6.40;99.90;;;;;;5082469;28;20063;-60
2022/12/03 13:11:03;;;;;;;25.48;12.93;;;6.30;99.90;;;;;;5069233;28;20026;-60
2022/12/03 13:13:40;;;;;;;25.58;13.60;;;6.30;99.90;;;;;;5069252;28;20048;-59